Airfield :
LOGIN :

Register | Disclaimer

   EN    FR    IT 

 










Legend :    VFR   Marginal VFR   IFR   Intensive IFR   Very Intensive IFR
Visi :
Ceiling :
>= 8 km
>= 3000ft
5 to 8 km
1000 to 3000 ft
1500m to 5 km
500 to 1000 ft
800 to 1500m
200 to 500 ft
< 800m
< 200 ft
Symbols :   Thunderstorms  Fog  Heavy snow  Heavy precipitations  Wind > 20 kt
SIGMETs :     Misc.  Thunderstorms  Icing  Turbulence  Mountain Waves  Volcanic Ashes






- Airport Elevation : 404 ft
- IATA code : WRO


EPWR - Wroclaw

CURRENT METAR :
  • 070130Z 13004KT CAVOK 14/14 Q1007

EXPIRED METARs :
  • 070100Z 12004KT CAVOK 14/14 Q1007
  • 070030Z 13003KT CAVOK 14/14 Q1007
  • 070000Z 14003KT 120V220 CAVOK 14/14 Q1007
  • 062330Z 12006KT CAVOK 13/13 Q1007
  • 062300Z 09003KT CAVOK 14/14 Q1007

TAF TAF EPWR
Valid from the 07 at 00:00 until the 08 at 00:00 UTC


062330Z 0700/0724 14004KT CAVOK
TEMPO 0700/0710 4000 SHRA BKN040CB
PROB40
TEMPO 0703/0710 BKN006
PROB30
TEMPO 0703/0706 TSRA
PROB30
TEMPO 0712/0718 VRB15G30KT 3000 TSRA BKN030CB
BECMG 0714/0716 34010KT
BECMG 0718/0721 4000 RA BKN014
BECMG 0721/0723 BKN005



MET'MAP, your aeronautical weather chart ! - Copyright ORBIFLY December 2007 - Disclaimer

ORBIFLY MET'MAP TEAM :

Programming & Development : Alexandra Zaïnal
Concept & original design : Baudouin d'Aumeries
Assistance for programming : Marc-Olivier Méhu
Technical & hardware support : Manuel Goepfert

Contact : metmap@orbifly.com




SOURCES & CREDITS :

   NOAA